createdAt,value
2023-03-18T00:01:11.040Z,5.47
2023-03-18T00:03:39.693Z,5.40
2023-03-18T00:06:10.422Z,6.30
2023-03-18T00:08:39.301Z,5.68
2023-03-18T00:11:12.903Z,6.43
2023-03-18T00:13:41.463Z,5.43
2023-03-18T00:16:16.629Z,4.85
2023-03-18T00:18:44.756Z,6.60
2023-03-18T00:21:13.011Z,5.78
2023-03-18T00:23:41.249Z,4.47
2023-03-18T00:26:11.837Z,4.97
2023-03-18T00:28:39.918Z,5.10
2023-03-18T00:31:10.205Z,5.18
2023-03-18T00:33:40.000Z,4.53
2023-03-18T00:36:10.048Z,4.90
2023-03-18T00:38:41.063Z,4.80
2023-03-18T00:41:15.776Z,5.15
2023-03-18T00:43:52.343Z,4.95
2023-03-18T00:46:22.581Z,5.38
2023-03-18T00:48:51.229Z,6.00
2023-03-18T00:51:20.584Z,4.82
2023-03-18T00:53:53.056Z,5.10
2023-03-18T00:58:52.657Z,5.72
2023-03-18T01:01:21.285Z,5.15
2023-03-18T01:03:50.308Z,6.03
2023-03-18T01:06:22.620Z,5.45
2023-03-18T01:08:51.634Z,5.10
2023-03-18T01:11:19.571Z,4.88
2023-03-18T01:13:49.525Z,5.55
2023-03-18T01:16:17.994Z,5.38
2023-03-18T01:18:46.755Z,5.43
2023-03-18T01:21:15.540Z,5.32
2023-03-18T01:23:43.541Z,7.55
2023-03-18T01:26:11.693Z,5.53
2023-03-18T01:28:39.653Z,4.80
2023-03-18T01:31:09.209Z,5.47
2023-03-18T01:33:37.277Z,5.32
2023-03-18T01:36:06.009Z,4.78
2023-03-18T01:38:34.181Z,5.35
2023-03-18T01:41:02.989Z,4.85
2023-03-18T01:43:35.213Z,5.32
2023-03-18T01:46:35.972Z,5.13
2023-03-18T01:49:08.616Z,5.35
2023-03-18T01:51:36.732Z,5.70
2023-03-18T01:54:07.440Z,6.10
2023-03-18T01:56:39.540Z,5.22
2023-03-18T01:59:09.730Z,5.60
2023-03-18T02:01:44.972Z,6.40
2023-03-18T02:06:42.395Z,5.82
2023-03-18T02:09:11.078Z,4.82
2023-03-18T02:11:42.546Z,5.82
2023-03-18T02:14:15.295Z,5.68
2023-03-18T02:16:48.989Z,5.30
2023-03-18T02:19:29.778Z,5.07
2023-03-18T02:22:06.157Z,4.78
2023-03-18T02:24:42.454Z,5.13
2023-03-18T02:27:18.929Z,4.70
2023-03-18T02:29:47.783Z,4.70
2023-03-18T02:32:17.623Z,5.47
2023-03-18T02:34:46.449Z,5.15
2023-03-18T02:37:14.331Z,4.93
2023-03-18T02:39:42.206Z,4.38
2023-03-18T02:42:13.033Z,4.97
2023-03-18T02:44:45.162Z,4.63
2023-03-18T02:47:18.013Z,4.38
2023-03-18T02:49:46.129Z,5.07
2023-03-18T02:52:14.051Z,5.10
2023-03-18T02:54:41.984Z,4.07
2023-03-18T02:57:10.070Z,4.13
2023-03-18T02:59:37.957Z,4.22
2023-03-18T03:02:07.741Z,4.65
2023-03-18T03:04:35.632Z,4.50
2023-03-18T03:28:10.299Z,4.70
2023-03-18T03:39:13.511Z,4.68
2023-03-18T03:41:41.553Z,4.47
2023-03-18T03:44:09.492Z,3.92
2023-03-18T03:47:52.534Z,4.40
2023-03-18T04:16:39.411Z,5.18
2023-03-18T04:19:10.117Z,5.43
2023-03-18T04:21:38.735Z,4.97
2023-03-18T04:24:07.574Z,5.45
2023-03-18T04:26:36.666Z,5.57
2023-03-18T04:29:04.832Z,5.80
2023-03-18T04:31:34.164Z,5.18
2023-03-18T04:34:02.136Z,4.80
2023-03-18T04:36:30.038Z,5.55
2023-03-18T04:38:58.193Z,5.57
2023-03-18T04:41:26.194Z,5.22
2023-03-18T04:43:54.471Z,4.65
2023-03-18T04:46:22.509Z,3.95
2023-03-18T04:48:52.170Z,4.35
2023-03-18T04:51:20.658Z,4.63
2023-03-18T04:53:48.630Z,4.60
2023-03-18T04:56:16.563Z,4.57
2023-03-18T04:58:44.695Z,4.03
2023-03-18T05:01:13.154Z,4.07
2023-03-18T05:03:41.521Z,4.32
2023-03-18T05:06:21.720Z,4.45
2023-03-18T05:08:49.816Z,3.60
2023-03-18T05:11:17.799Z,5.32
2023-03-18T05:13:45.811Z,4.13
2023-03-18T05:16:13.994Z,3.95
2023-03-18T05:18:45.258Z,4.47
2023-03-18T05:21:14.736Z,4.07
2023-03-18T05:23:42.863Z,3.97
2023-03-18T05:26:11.534Z,4.22
2023-03-18T05:28:40.385Z,4.13
2023-03-18T05:31:08.524Z,3.90
2023-03-18T05:33:36.491Z,4.32
2023-03-18T05:36:04.746Z,4.25
2023-03-18T05:38:33.993Z,3.72
2023-03-18T05:41:01.935Z,3.90
2023-03-18T05:43:29.866Z,3.58
2023-03-18T05:45:57.780Z,3.72
2023-03-18T05:48:26.942Z,3.50
2023-03-18T05:50:54.884Z,3.67
2023-03-18T05:53:23.571Z,4.20
2023-03-18T05:55:52.912Z,4.38
2023-03-18T05:58:21.059Z,4.35
2023-03-18T06:00:50.495Z,4.10
2023-03-18T06:04:24.214Z,4.13
2023-03-18T06:08:54.176Z,3.58
2023-03-18T06:16:15.582Z,3.00
2023-03-18T06:24:26.916Z,3.05
2023-03-18T06:28:35.355Z,2.97
2023-03-18T07:08:43.604Z,3.00
2023-03-18T07:25:34.687Z,2.85
2023-03-18T07:28:04.992Z,2.78
2023-03-18T07:30:33.919Z,3.40
2023-03-18T07:33:02.340Z,2.72
2023-03-18T07:35:30.422Z,2.35
2023-03-18T07:37:59.579Z,2.20
2023-03-18T07:40:27.576Z,2.38
2023-03-18T07:42:55.580Z,2.65
2023-03-18T07:45:23.854Z,2.30
2023-03-18T07:47:51.720Z,2.78
2023-03-18T07:50:19.819Z,2.42
2023-03-18T07:52:48.130Z,2.13
2023-03-18T07:55:17.541Z,2.05
2023-03-18T07:57:45.388Z,2.20
2023-03-18T08:00:14.863Z,2.80
2023-03-18T08:02:43.188Z,5.85
2023-03-18T08:05:11.840Z,4.60
2023-03-18T08:07:39.807Z,2.70
2023-03-18T08:10:09.993Z,2.85
2023-03-18T08:12:52.077Z,2.90
2023-03-18T08:15:20.399Z,2.05
2023-03-18T08:17:48.311Z,2.42
2023-03-18T08:20:16.527Z,2.17
2023-03-18T08:22:45.926Z,1.67
2023-03-18T08:25:14.291Z,2.15
2023-03-18T08:27:43.876Z,1.75
2023-03-18T08:30:13.669Z,1.98
2023-03-18T08:32:41.971Z,1.83
2023-03-18T08:35:11.245Z,1.58
2023-03-18T08:37:39.260Z,1.55
2023-03-18T08:40:09.769Z,1.30
2023-03-18T08:42:37.713Z,1.50
2023-03-18T08:45:08.233Z,1.50
2023-03-18T08:47:36.225Z,1.60
2023-03-18T08:50:04.333Z,2.20
2023-03-18T08:52:32.365Z,1.65
2023-03-18T08:55:02.697Z,1.10
2023-03-18T08:57:32.027Z,1.10
2023-03-18T09:00:00.106Z,1.25
2023-03-18T09:02:30.141Z,1.02
2023-03-18T09:04:58.665Z,1.10
2023-03-18T09:07:27.410Z,1.20
2023-03-18T09:09:55.528Z,1.30
2023-03-18T09:12:24.828Z,1.48
2023-03-18T09:14:52.921Z,1.10
2023-03-18T09:17:23.634Z,1.15
2023-03-18T09:19:58.664Z,0.85
2023-03-18T09:22:27.798Z,1.42
2023-03-18T09:24:57.184Z,1.60
2023-03-18T09:27:25.797Z,1.42
2023-03-18T09:29:54.208Z,1.55
2023-03-18T09:32:22.268Z,1.10
2023-03-18T09:34:50.709Z,1.02
2023-03-18T09:37:20.591Z,1.05
2023-03-18T09:39:48.975Z,2.47
2023-03-18T09:42:38.000Z,1.23
2023-03-18T09:45:17.271Z,0.95
2023-03-18T09:48:14.780Z,1.73
2023-03-18T09:50:48.802Z,1.23
2023-03-18T09:53:25.185Z,1.42
2023-03-18T09:55:58.200Z,1.27
2023-03-18T09:58:32.546Z,1.15
2023-03-18T10:01:03.346Z,0.95
2023-03-18T10:03:37.483Z,1.30
2023-03-18T10:06:09.700Z,0.98
2023-03-18T10:08:50.105Z,1.63
2023-03-18T10:11:25.645Z,1.48
2023-03-18T10:14:12.182Z,1.23
2023-03-18T10:16:53.051Z,1.60
2023-03-18T10:19:21.223Z,1.42
2023-03-18T10:21:56.126Z,1.60
2023-03-18T10:24:38.044Z,1.90
2023-03-18T10:27:15.281Z,1.90
2023-03-18T10:29:51.101Z,4.95
2023-03-18T10:32:46.373Z,2.10
2023-03-18T17:31:55.437Z,1.95
2023-03-18T17:34:24.067Z,1.88
2023-03-18T17:40:20.981Z,1.88
2023-03-18T17:42:53.231Z,1.73
2023-03-18T17:45:27.959Z,1.55
2023-03-18T17:48:13.937Z,2.00
2023-03-18T17:50:42.580Z,1.60
2023-03-18T17:53:25.513Z,1.77
2023-03-18T17:55:54.852Z,2.10
2023-03-18T17:58:27.667Z,2.50
2023-03-18T18:01:02.197Z,1.75
2023-03-18T18:03:32.832Z,2.05
2023-03-18T18:06:04.064Z,2.60
2023-03-18T18:08:34.570Z,2.45
2023-03-18T18:11:11.795Z,2.20
2023-03-18T18:13:40.058Z,2.08
2023-03-18T18:16:08.140Z,2.22
2023-03-18T18:18:41.387Z,2.33
2023-03-18T18:21:15.478Z,2.65
2023-03-18T18:23:45.428Z,3.42
2023-03-18T18:26:16.534Z,2.90
2023-03-18T18:28:47.512Z,2.60
2023-03-18T18:31:19.278Z,2.78
2023-03-18T18:33:50.522Z,3.05
2023-03-18T18:36:19.039Z,3.25
2023-03-18T18:38:52.880Z,5.07
2023-03-18T18:41:25.958Z,4.38
2023-03-18T18:43:55.609Z,4.60
2023-03-18T18:46:24.478Z,4.65
2023-03-18T18:48:54.417Z,5.07
2023-03-18T18:51:40.657Z,5.00
2023-03-18T18:54:41.495Z,4.55
2023-03-18T18:57:24.506Z,4.97
2023-03-18T18:59:54.973Z,5.22
2023-03-18T19:02:35.592Z,4.55
2023-03-18T19:05:08.903Z,4.03
2023-03-18T19:21:42.899Z,3.67
2023-03-18T19:25:35.701Z,3.47
2023-03-18T19:29:19.684Z,3.38
2023-03-18T19:34:34.862Z,4.45
2023-03-18T19:37:05.874Z,3.30
2023-03-18T19:39:36.585Z,3.70
2023-03-18T19:42:28.308Z,3.70
2023-03-18T19:44:58.686Z,3.20
2023-03-18T19:47:29.007Z,3.85
2023-03-18T19:49:57.240Z,3.13
2023-03-18T19:52:28.602Z,3.67
2023-03-18T19:54:57.766Z,3.22
2023-03-18T19:57:28.182Z,3.85
2023-03-18T19:59:59.360Z,3.35
2023-03-18T20:02:30.802Z,3.47
2023-03-18T20:05:00.616Z,3.95
2023-03-18T20:07:32.594Z,3.50
2023-03-18T20:10:08.635Z,3.80
2023-03-18T20:12:38.600Z,3.83
2023-03-18T20:15:08.583Z,3.17
2023-03-18T20:17:41.875Z,4.15
2023-03-18T20:20:16.475Z,6.03
2023-03-18T20:22:48.266Z,4.95
2023-03-18T20:25:23.065Z,5.00
2023-03-18T20:27:54.817Z,4.55
2023-03-18T20:30:29.209Z,5.93
2023-03-18T20:32:58.159Z,6.25
2023-03-18T20:35:29.519Z,5.22
2023-03-18T20:38:01.394Z,5.55
2023-03-18T20:40:30.396Z,5.95
2023-03-18T20:42:58.989Z,6.07
2023-03-18T20:45:27.268Z,5.00
2023-03-18T20:47:59.804Z,5.03
2023-03-18T20:50:30.844Z,4.97
2023-03-18T20:53:03.743Z,5.07
2023-03-18T20:55:40.148Z,5.57
2023-03-18T20:58:14.543Z,5.55
2023-03-18T21:00:43.759Z,5.38
2023-03-18T21:03:25.322Z,5.30
2023-03-18T21:05:56.177Z,4.70
2023-03-18T21:08:26.670Z,5.50
2023-03-18T21:10:55.596Z,5.85
2023-03-18T21:13:30.909Z,5.38
2023-03-18T21:16:00.729Z,6.05
2023-03-18T21:18:29.157Z,5.07
2023-03-18T21:21:00.742Z,5.95
2023-03-18T21:23:32.802Z,5.82
2023-03-18T21:26:05.189Z,6.07
2023-03-18T21:28:40.874Z,4.47
2023-03-18T21:31:23.025Z,5.43
2023-03-18T21:33:51.549Z,3.25
2023-03-18T21:36:20.097Z,4.60
2023-03-18T21:38:52.735Z,4.32
2023-03-18T21:41:25.204Z,4.72
2023-03-18T21:46:27.260Z,5.15
2023-03-18T21:48:55.857Z,4.25
2023-03-18T21:51:39.206Z,4.22
2023-03-18T21:54:20.688Z,6.03
2023-03-18T21:56:48.719Z,4.82
2023-03-18T21:59:17.109Z,5.35
2023-03-18T22:01:45.430Z,4.20
2023-03-18T22:04:13.594Z,4.90
2023-03-18T22:06:41.710Z,4.85
2023-03-18T22:09:11.053Z,5.07
2023-03-18T22:11:39.213Z,5.60
2023-03-18T22:14:07.549Z,4.55
2023-03-18T22:16:35.742Z,6.57
2023-03-18T22:19:07.322Z,5.90
2023-03-18T22:21:35.789Z,6.15
2023-03-18T22:24:03.804Z,6.32
2023-03-18T22:26:33.366Z,6.57
2023-03-18T22:29:01.472Z,6.40
2023-03-18T22:31:29.572Z,6.43
2023-03-18T22:33:58.190Z,5.75
2023-03-18T22:36:28.791Z,5.57
2023-03-18T22:38:56.956Z,5.40
2023-03-18T22:41:29.505Z,5.15
2023-03-18T22:46:29.907Z,6.40
2023-03-18T22:49:19.555Z,5.72
2023-03-18T22:52:13.365Z,5.25
2023-03-18T22:54:56.894Z,5.55
2023-03-18T22:58:04.528Z,6.20
2023-03-18T23:01:06.211Z,5.63
2023-03-18T23:04:04.510Z,5.28
2023-03-18T23:12:00.785Z,5.32
2023-03-18T23:14:29.143Z,5.55
2023-03-18T23:16:58.496Z,5.28
2023-03-18T23:19:26.383Z,6.63
2023-03-18T23:21:54.277Z,5.90
2023-03-18T23:24:22.174Z,6.07
2023-03-18T23:26:50.124Z,6.03
2023-03-18T23:29:18.014Z,6.68
2023-03-18T23:31:46.875Z,6.10
2023-03-18T23:34:18.845Z,6.25
2023-03-18T23:36:49.595Z,5.95
2023-03-18T23:39:17.451Z,5.70
2023-03-18T23:41:45.816Z,5.75
2023-03-18T23:44:13.695Z,6.78
2023-03-18T23:46:42.139Z,5.50
2023-03-18T23:49:10.081Z,7.45
2023-03-18T23:51:39.634Z,6.43
2023-03-18T23:54:08.192Z,7.28
2023-03-18T23:56:37.792Z,7.05
2023-03-18T23:59:05.768Z,6.65
